PWSweather.com
Personal Weather Stations
Station Observations
FAUSKE
Nordland, Norway, FauskeNO 8200

Nordland, NorwayFauskeNO 8200

Lat: 67.2607586, Lon: 15.4114204

Elevation: 40

Station Type: Davis Vantage PRO2

http://www.bjornli.net/weather.html

High Low Average
Temperature 48.4°F9.1°C 32.5°F0.3°C 38.9°F3.8°C
Dew Point 41.4°F5.2°C 31.2°F-0.4°C 35.4°F1.9°C
Winds 5.0 mph 8.0 kmh Calm Calm Calm NECalm NE
Wind Gusts 11.0 mph17.7 kmh -- 1.0 mph1.6 kmh
Humidity 97% 67% 88%
Pressure 30.04 in1017.3 mb 29.74 in1007.1 mb -
Precipitation 0.00 in0.0 mm - -
Hour Temp Dew Point Humidity Winds Wind Gusts Pressure Precip Precip Rate Daily Precip Total
12:00 AM 35.4°F1.9°C 33.9°F1.1°C 94% Calm Calm -- 29.74 in1007.1 mb 0.00 in0.0 mm 0.00 in0.0 mm 0.00 in0.0 mm
12:10 AM 35.3°F1.8°C 33.8°F1.0°C 94% Calm Calm -- 29.74 in1007.1 mb 0.00 in0.0 mm 0.00 in0.0 mm 0.00 in0.0 mm
12:30 AM 35.0°F1.7°C 33.5°F0.8°C 94% Calm Calm -- 29.75 in1007.5 mb 0.00 in0.0 mm 0.00 in0.0 mm 0.00 in0.0 mm
12:40 AM 34.9°F1.6°C 33.4°F0.8°C 94% Calm Calm -- 29.75 in1007.5 mb 0.00 in0.0 mm 0.00 in0.0 mm 0.00 in0.0 mm
01:00 AM 34.2°F1.2°C 32.7°F0.4°C 94% Calm Calm -- 29.75 in1007.5 mb 0.00 in0.0 mm 0.00 in0.0 mm 0.00 in0.0 mm
01:10 AM 34.1°F1.2°C 32.6°F0.3°C 94% Calm Calm -- 29.76 in1007.8 mb 0.00 in0.0 mm 0.00 in0.0 mm 0.00 in0.0 mm
01:30 AM 33.9°F1.1°C 32.4°F0.2°C 94% Calm Calm -- 29.76 in1007.8 mb 0.00 in0.0 mm 0.00 in0.0 mm 0.00 in0.0 mm
01:40 AM 33.8°F1.0°C 32.3°F0.2°C 94% Calm Calm -- 29.75 in1007.5 mb 0.00 in0.0 mm 0.00 in0.0 mm 0.00 in0.0 mm
02:00 AM 33.8°F1.0°C 32.3°F0.2°C 94% Calm Calm -- 29.76 in1007.8 mb 0.00 in0.0 mm 0.00 in0.0 mm 0.00 in0.0 mm
02:10 AM 33.9°F1.1°C 32.6°F0.3°C 95% Calm Calm -- 29.76 in1007.8 mb 0.00 in0.0 mm 0.00 in0.0 mm 0.00 in0.0 mm
02:30 AM 33.5°F0.8°C 32.2°F0.1°C 95% Calm Calm -- 29.77 in1008.1 mb 0.00 in0.0 mm 0.00 in0.0 mm 0.00 in0.0 mm
02:40 AM 33.1°F0.6°C 31.8°F-0.1°C 95% Calm Calm -- 29.77 in1008.1 mb 0.00 in0.0 mm 0.00 in0.0 mm 0.00 in0.0 mm
03:00 AM 32.8°F0.4°C 31.5°F-0.3°C 95% Calm Calm -- 29.77 in1008.1 mb 0.00 in0.0 mm 0.00 in0.0 mm 0.00 in0.0 mm
03:10 AM 32.8°F0.4°C 31.5°F-0.3°C 95% Calm Calm -- 29.78 in1008.5 mb 0.00 in0.0 mm 0.00 in0.0 mm 0.00 in0.0 mm
03:30 AM 33.0°F0.6°C 31.7°F-0.2°C 95% Calm Calm -- 29.78 in1008.5 mb 0.00 in0.0 mm 0.00 in0.0 mm 0.00 in0.0 mm
03:40 AM 33.1°F0.6°C 31.8°F-0.1°C 95% Calm Calm -- 29.78 in1008.5 mb 0.00 in0.0 mm 0.00 in0.0 mm 0.00 in0.0 mm
04:00 AM 32.7°F0.4°C 31.4°F-0.3°C 95% Calm Calm -- 29.79 in1008.8 mb 0.00 in0.0 mm 0.00 in0.0 mm 0.00 in0.0 mm
04:10 AM 32.5°F0.3°C 31.2°F-0.4°C 95% Calm Calm -- 29.79 in1008.8 mb 0.00 in0.0 mm 0.00 in0.0 mm 0.00 in0.0 mm
04:30 AM 32.7°F0.4°C 31.4°F-0.3°C 95% Calm Calm -- 29.79 in1008.8 mb 0.00 in0.0 mm 0.00 in0.0 mm 0.00 in0.0 mm
04:40 AM 32.7°F0.4°C 31.4°F-0.3°C 95% Calm Calm -- 29.79 in1008.8 mb 0.00 in0.0 mm 0.00 in0.0 mm 0.00 in0.0 mm
05:00 AM 33.0°F0.6°C 32.0°F0.0°C 96% Calm Calm -- 29.80 in1009.1 mb 0.00 in0.0 mm 0.00 in0.0 mm 0.00 in0.0 mm
05:10 AM 33.3°F0.7°C 32.3°F0.2°C 96% Calm Calm -- 29.80 in1009.1 mb 0.00 in0.0 mm 0.00 in0.0 mm 0.00 in0.0 mm
05:30 AM 33.6°F0.9°C 32.6°F0.3°C 96% Calm Calm -- 29.80 in1009.1 mb 0.00 in0.0 mm 0.00 in0.0 mm 0.00 in0.0 mm
05:40 AM 33.6°F0.9°C 32.6°F0.3°C 96% Calm Calm -- 29.81 in1009.5 mb 0.00 in0.0 mm 0.00 in0.0 mm 0.00 in0.0 mm
06:00 AM 33.6°F0.9°C 32.6°F0.3°C 96% Calm Calm -- 29.81 in1009.5 mb 0.00 in0.0 mm 0.00 in0.0 mm 0.00 in0.0 mm
06:10 AM 33.5°F0.8°C 32.5°F0.3°C 96% Calm Calm -- 29.82 in1009.8 mb 0.00 in0.0 mm 0.00 in0.0 mm 0.00 in0.0 mm
06:30 AM 34.0°F1.1°C 33.0°F0.6°C 96% Calm Calm -- 29.82 in1009.8 mb 0.00 in0.0 mm 0.00 in0.0 mm 0.00 in0.0 mm
06:40 AM 34.2°F1.2°C 33.2°F0.7°C 96% Calm Calm -- 29.83 in1010.2 mb 0.00 in0.0 mm 0.00 in0.0 mm 0.00 in0.0 mm
07:00 AM 34.7°F1.5°C 33.7°F0.9°C 96% Calm Calm -- 29.83 in1010.2 mb 0.00 in0.0 mm 0.00 in0.0 mm 0.00 in0.0 mm
07:10 AM 35.0°F1.7°C 34.0°F1.1°C 96% Calm Calm -- 29.83 in1010.2 mb 0.00 in0.0 mm 0.00 in0.0 mm 0.00 in0.0 mm
07:30 AM 35.4°F1.9°C 34.4°F1.3°C 96% Calm Calm -- 29.84 in1010.5 mb 0.00 in0.0 mm 0.00 in0.0 mm 0.00 in0.0 mm
07:40 AM 35.4°F1.9°C 34.4°F1.3°C 96% Calm Calm -- 29.84 in1010.5 mb 0.00 in0.0 mm 0.00 in0.0 mm 0.00 in0.0 mm
08:00 AM 36.3°F2.4°C 35.3°F1.8°C 96% Calm Calm -- 29.84 in1010.5 mb 0.00 in0.0 mm 0.00 in0.0 mm 0.00 in0.0 mm
08:10 AM 36.6°F2.6°C 35.6°F2.0°C 96% Calm Calm -- 29.84 in1010.5 mb 0.00 in0.0 mm 0.00 in0.0 mm 0.00 in0.0 mm
08:30 AM 37.9°F3.3°C 36.9°F2.7°C 96% Calm Calm -- 29.85 in1010.8 mb 0.00 in0.0 mm 0.00 in0.0 mm 0.00 in0.0 mm
08:40 AM 38.5°F3.6°C 37.7°F3.2°C 97% Calm Calm -- 29.85 in1010.8 mb 0.00 in0.0 mm 0.00 in0.0 mm 0.00 in0.0 mm
09:00 AM 39.9°F4.4°C 38.9°F3.8°C 96% Calm Calm -- 29.86 in1011.2 mb 0.00 in0.0 mm 0.00 in0.0 mm 0.00 in0.0 mm
09:10 AM 40.8°F4.9°C 39.8°F4.3°C 96% Calm Calm -- 29.86 in1011.2 mb 0.00 in0.0 mm 0.00 in0.0 mm 0.00 in0.0 mm
09:30 AM 42.1°F5.6°C 40.5°F4.7°C 94% Calm Calm -- 29.86 in1011.2 mb 0.00 in0.0 mm 0.00 in0.0 mm 0.00 in0.0 mm
09:40 AM 42.8°F6.0°C 40.9°F4.9°C 93% Calm Calm -- 29.87 in1011.5 mb 0.00 in0.0 mm 0.00 in0.0 mm 0.00 in0.0 mm
10:00 AM 43.8°F6.6°C 40.2°F4.6°C 87% Calm Calm -- 29.87 in1011.5 mb 0.00 in0.0 mm 0.00 in0.0 mm 0.00 in0.0 mm
10:10 AM 43.6°F6.4°C 39.4°F4.1°C 85% Calm Calm -- 29.87 in1011.5 mb 0.00 in0.0 mm 0.00 in0.0 mm 0.00 in0.0 mm
10:30 AM 43.7°F6.5°C 39.5°F4.2°C 85% Calm Calm -- 29.87 in1011.5 mb 0.00 in0.0 mm 0.00 in0.0 mm 0.00 in0.0 mm
10:40 AM 43.6°F6.4°C 39.1°F3.9°C 84% Calm Calm 4.0 mph6.4 kmh 29.87 in1011.5 mb 0.00 in0.0 mm 0.00 in0.0 mm 0.00 in0.0 mm
11:00 AM 43.2°F6.2°C 38.7°F3.7°C 84% Calm Calm -- 29.88 in1011.9 mb 0.00 in0.0 mm 0.00 in0.0 mm 0.00 in0.0 mm
11:10 AM 43.1°F6.2°C 38.9°F3.8°C 85% Calm Calm -- 29.88 in1011.9 mb 0.00 in0.0 mm 0.00 in0.0 mm 0.00 in0.0 mm
11:30 AM 45.3°F7.4°C 40.5°F4.7°C 83% Calm Calm 3.0 mph4.8 kmh 29.89 in1012.2 mb 0.00 in0.0 mm 0.00 in0.0 mm 0.00 in0.0 mm
11:40 AM 45.7°F7.6°C 40.5°F4.7°C 82% Calm Calm 3.0 mph4.8 kmh 29.89 in1012.2 mb 0.00 in0.0 mm 0.00 in0.0 mm 0.00 in0.0 mm
12:00 PM 46.9°F8.3°C 41.1°F5.1°C 80% Calm Calm -- 29.89 in1012.2 mb 0.00 in0.0 mm 0.00 in0.0 mm 0.00 in0.0 mm
12:10 PM 47.2°F8.4°C 41.0°F5.0°C 79% Calm Calm -- 29.89 in1012.2 mb 0.00 in0.0 mm 0.00 in0.0 mm 0.00 in0.0 mm
12:30 PM 46.5°F8.1°C 40.4°F4.7°C 79% Calm Calm -- 29.89 in1012.2 mb 0.00 in0.0 mm 0.00 in0.0 mm 0.00 in0.0 mm
12:40 PM 46.4°F8.0°C 40.6°F4.8°C 80% Calm Calm -- 29.90 in1012.5 mb 0.00 in0.0 mm 0.00 in0.0 mm 0.00 in0.0 mm
01:00 PM 46.6°F8.1°C 41.4°F5.2°C 82% Calm Calm -- 29.90 in1012.5 mb 0.00 in0.0 mm 0.00 in0.0 mm 0.00 in0.0 mm
01:10 PM 47.1°F8.4°C 41.3°F5.2°C 80% Calm Calm 5.0 mph8.0 kmh 29.90 in1012.5 mb 0.00 in0.0 mm 0.00 in0.0 mm 0.00 in0.0 mm
01:30 PM 47.5°F8.6°C 40.3°F4.6°C 76% 5.0 mph SW8.0 kmh SW 10.0 mph16.1 kmh 29.90 in1012.5 mb 0.00 in0.0 mm 0.00 in0.0 mm 0.00 in0.0 mm
01:40 PM 47.1°F8.4°C 39.9°F4.4°C 76% 1.0 mph SW1.6 kmh SW 11.0 mph17.7 kmh 29.90 in1012.5 mb 0.00 in0.0 mm 0.00 in0.0 mm 0.00 in0.0 mm
02:00 PM 47.7°F8.7°C 40.2°F4.6°C 75% 3.0 mph WSW4.8 kmh WSW 4.0 mph6.4 kmh 29.90 in1012.5 mb 0.00 in0.0 mm 0.00 in0.0 mm 0.00 in0.0 mm
02:10 PM 48.4°F9.1°C 40.2°F4.6°C 73% 4.0 mph WSW6.4 kmh WSW 6.0 mph9.7 kmh 29.90 in1012.5 mb 0.00 in0.0 mm 0.00 in0.0 mm 0.00 in0.0 mm
02:30 PM 48.3°F9.1°C 37.9°F3.3°C 67% Calm Calm -- 29.90 in1012.5 mb 0.00 in0.0 mm 0.00 in0.0 mm 0.00 in0.0 mm
02:40 PM 48.2°F9.0°C 38.2°F3.4°C 68% Calm Calm 6.0 mph9.7 kmh 29.90 in1012.5 mb 0.00 in0.0 mm 0.00 in0.0 mm 0.00 in0.0 mm
03:00 PM 46.3°F7.9°C 38.5°F3.6°C 74% 1.0 mph NE1.6 kmh NE 4.0 mph6.4 kmh 29.91 in1012.9 mb 0.00 in0.0 mm 0.00 in0.0 mm 0.00 in0.0 mm
03:10 PM 45.7°F7.6°C 37.6°F3.1°C 73% 4.0 mph NE6.4 kmh NE 5.0 mph8.0 kmh 29.91 in1012.9 mb 0.00 in0.0 mm 0.00 in0.0 mm 0.00 in0.0 mm
03:30 PM 45.7°F7.6°C 37.6°F3.1°C 73% 1.0 mph NE1.6 kmh NE 2.0 mph3.2 kmh 29.91 in1012.9 mb 0.00 in0.0 mm 0.00 in0.0 mm 0.00 in0.0 mm
03:40 PM 45.0°F7.2°C 37.6°F3.1°C 75% Calm Calm 4.0 mph6.4 kmh 29.91 in1012.9 mb 0.00 in0.0 mm 0.00 in0.0 mm 0.00 in0.0 mm
04:00 PM 43.9°F6.6°C 37.2°F2.9°C 77% Calm Calm -- 29.92 in1013.2 mb 0.00 in0.0 mm 0.00 in0.0 mm 0.00 in0.0 mm
04:10 PM 43.6°F6.4°C 37.2°F2.9°C 78% Calm Calm -- 29.92 in1013.2 mb 0.00 in0.0 mm 0.00 in0.0 mm 0.00 in0.0 mm
04:30 PM 42.8°F6.0°C 37.1°F2.8°C 80% Calm Calm -- 29.92 in1013.2 mb 0.00 in0.0 mm 0.00 in0.0 mm 0.00 in0.0 mm
04:40 PM 42.3°F5.7°C 36.6°F2.6°C 80% Calm Calm -- 29.92 in1013.2 mb 0.00 in0.0 mm 0.00 in0.0 mm 0.00 in0.0 mm
05:00 PM 41.7°F5.4°C 36.3°F2.4°C 81% Calm Calm -- 29.93 in1013.5 mb 0.00 in0.0 mm 0.00 in0.0 mm 0.00 in0.0 mm
05:10 PM 41.4°F5.2°C 36.3°F2.4°C 82% Calm Calm -- 29.93 in1013.5 mb 0.00 in0.0 mm 0.00 in0.0 mm 0.00 in0.0 mm
05:30 PM 41.1°F5.1°C 36.6°F2.6°C 84% Calm Calm -- 29.94 in1013.9 mb 0.00 in0.0 mm 0.00 in0.0 mm 0.00 in0.0 mm
05:40 PM 41.0°F5.0°C 36.8°F2.7°C 85% Calm Calm -- 29.95 in1014.2 mb 0.00 in0.0 mm 0.00 in0.0 mm 0.00 in0.0 mm
06:00 PM 41.3°F5.2°C 36.5°F2.5°C 83% Calm Calm -- 29.95 in1014.2 mb 0.00 in0.0 mm 0.00 in0.0 mm 0.00 in0.0 mm
06:10 PM 41.0°F5.0°C 36.5°F2.5°C 84% Calm Calm -- 29.95 in1014.2 mb 0.00 in0.0 mm 0.00 in0.0 mm 0.00 in0.0 mm
06:30 PM 40.2°F4.6°C 36.1°F2.3°C 85% Calm Calm -- 29.95 in1014.2 mb 0.00 in0.0 mm 0.00 in0.0 mm 0.00 in0.0 mm
06:40 PM 39.9°F4.4°C 35.8°F2.1°C 85% Calm Calm -- 29.96 in1014.6 mb 0.00 in0.0 mm 0.00 in0.0 mm 0.00 in0.0 mm
07:00 PM 39.4°F4.1°C 35.3°F1.8°C 85% Calm Calm 1.0 mph1.6 kmh 29.97 in1014.9 mb 0.00 in0.0 mm 0.00 in0.0 mm 0.00 in0.0 mm
07:10 PM 39.2°F4.0°C 34.8°F1.6°C 84% Calm Calm 2.0 mph3.2 kmh 29.97 in1014.9 mb 0.00 in0.0 mm 0.00 in0.0 mm 0.00 in0.0 mm
07:30 PM 39.2°F4.0°C 34.5°F1.4°C 83% 2.0 mph NNE3.2 kmh NNE 2.0 mph3.2 kmh 29.97 in1014.9 mb 0.00 in0.0 mm 0.00 in0.0 mm 0.00 in0.0 mm
07:40 PM 39.0°F3.9°C 34.3°F1.3°C 83% Calm Calm 5.0 mph8.0 kmh 29.98 in1015.2 mb 0.00 in0.0 mm 0.00 in0.0 mm 0.00 in0.0 mm
08:00 PM 38.1°F3.4°C 34.0°F1.1°C 85% Calm Calm -- 29.98 in1015.2 mb 0.00 in0.0 mm 0.00 in0.0 mm 0.00 in0.0 mm
08:10 PM 37.9°F3.3°C 33.8°F1.0°C 85% Calm Calm 3.0 mph4.8 kmh 29.98 in1015.2 mb 0.00 in0.0 mm 0.00 in0.0 mm 0.00 in0.0 mm
08:30 PM 37.0°F2.8°C 33.5°F0.8°C 87% Calm Calm -- 29.99 in1015.6 mb 0.00 in0.0 mm 0.00 in0.0 mm 0.00 in0.0 mm
08:40 PM 36.7°F2.6°C 33.2°F0.7°C 87% Calm Calm -- 29.99 in1015.6 mb 0.00 in0.0 mm 0.00 in0.0 mm 0.00 in0.0 mm
09:00 PM 36.5°F2.5°C 33.3°F0.7°C 88% Calm Calm -- 30.00 in1015.9 mb 0.00 in0.0 mm 0.00 in0.0 mm 0.00 in0.0 mm
09:10 PM 36.5°F2.5°C 33.3°F0.7°C 88% Calm Calm -- 30.00 in1015.9 mb 0.00 in0.0 mm 0.00 in0.0 mm 0.00 in0.0 mm
09:30 PM 36.5°F2.5°C 33.3°F0.7°C 88% 2.0 mph NNE3.2 kmh NNE 2.0 mph3.2 kmh 30.01 in1016.3 mb 0.00 in0.0 mm 0.00 in0.0 mm 0.00 in0.0 mm
09:40 PM 36.6°F2.6°C 33.4°F0.8°C 88% Calm Calm 4.0 mph6.4 kmh 30.01 in1016.3 mb 0.00 in0.0 mm 0.00 in0.0 mm 0.00 in0.0 mm
10:00 PM 36.2°F2.3°C 33.0°F0.6°C 88% Calm Calm -- 30.02 in1016.6 mb 0.00 in0.0 mm 0.00 in0.0 mm 0.00 in0.0 mm
10:10 PM 35.7°F2.1°C 32.5°F0.3°C 88% Calm Calm -- 30.02 in1016.6 mb 0.00 in0.0 mm 0.00 in0.0 mm 0.00 in0.0 mm
10:30 PM 35.1°F1.7°C 32.2°F0.1°C 89% Calm Calm -- 30.02 in1016.6 mb 0.00 in0.0 mm 0.00 in0.0 mm 0.00 in0.0 mm
10:40 PM 34.8°F1.6°C 31.9°F-0.1°C 89% Calm Calm -- 30.03 in1016.9 mb 0.00 in0.0 mm 0.00 in0.0 mm 0.00 in0.0 mm
11:00 PM 34.7°F1.5°C 32.1°F0.1°C 90% Calm Calm -- 30.03 in1016.9 mb 0.00 in0.0 mm 0.00 in0.0 mm 0.00 in0.0 mm
11:10 PM 34.6°F1.4°C 32.3°F0.2°C 91% Calm Calm -- 30.03 in1016.9 mb 0.00 in0.0 mm 0.00 in0.0 mm 0.00 in0.0 mm
11:30 PM 34.2°F1.2°C 31.9°F-0.1°C 91% Calm Calm -- 30.03 in1016.9 mb 0.00 in0.0 mm 0.00 in0.0 mm 0.00 in0.0 mm
11:40 PM 34.0°F1.1°C 31.7°F-0.2°C 91% Calm Calm -- 30.04 in1017.3 mb 0.00 in0.0 mm 0.00 in0.0 mm 0.00 in0.0 mm